createdAt,value
2019-04-21T00:00:15.563Z,12.20
2019-04-21T00:02:07.157Z,12.30
2019-04-21T00:04:12.482Z,12.20
2019-04-21T00:06:18.360Z,12.20
2019-04-21T00:08:12.736Z,12.20
2019-04-21T00:10:07.640Z,12.10
2019-04-21T00:11:55.393Z,12.10
2019-04-21T00:13:42.777Z,12.10
2019-04-21T00:15:33.226Z,12.10
2019-04-21T00:17:19.879Z,12.20
2019-04-21T00:19:33.960Z,12.30
2019-04-21T00:21:34.760Z,12.30
2019-04-21T00:23:39.544Z,12.10
2019-04-21T00:25:27.551Z,12.00
2019-04-21T00:27:24.501Z,11.90
2019-04-21T00:29:25.654Z,12.00
2019-04-21T00:31:12.666Z,12.00
2019-04-21T00:32:58.803Z,12.00
2019-04-21T00:34:52.297Z,12.00
2019-04-21T00:36:47.077Z,12.00
2019-04-21T00:39:09.620Z,11.80
2019-04-21T00:40:52.091Z,11.80
2019-04-21T00:42:38.620Z,11.90
2019-04-21T00:44:26.134Z,11.60
2019-04-21T00:46:19.552Z,11.30
2019-04-21T00:48:27.033Z,11.20
2019-04-21T00:50:20.561Z,11.10
2019-04-21T00:52:24.770Z,10.90
2019-04-21T00:54:16.942Z,10.70
2019-04-21T00:56:09.224Z,10.60
2019-04-21T00:58:02.012Z,10.40
2019-04-21T01:00:01.248Z,10.50
2019-04-21T01:01:48.096Z,10.30
2019-04-21T01:03:45.696Z,10.50
2019-04-21T01:05:42.713Z,10.50
2019-04-21T01:07:31.492Z,10.40
2019-04-21T01:09:23.720Z,10.40
2019-04-21T01:11:19.536Z,10.40
2019-04-21T01:13:18.690Z,10.40
2019-04-21T01:15:11.084Z,10.30
2019-04-21T01:17:07.136Z,10.00
2019-04-21T01:18:54.472Z,9.90
2019-04-21T01:20:28.360Z,10.00
2019-04-21T01:22:20.279Z,9.90
2019-04-21T01:24:19.682Z,9.90
2019-04-21T01:26:18.294Z,10.00
2019-04-21T01:28:23.200Z,10.00
2019-04-21T01:30:16.347Z,10.00
2019-04-21T01:32:10.461Z,10.00
2019-04-21T01:34:02.883Z,10.00
2019-04-21T01:35:55.576Z,9.90
2019-04-21T01:37:57.186Z,9.90
2019-04-21T01:39:46.957Z,9.80
2019-04-21T01:41:42.770Z,9.80
2019-04-21T01:43:31.522Z,9.70
2019-04-21T01:45:26.460Z,9.60
2019-04-21T01:47:15.999Z,9.50
2019-04-21T01:49:10.515Z,9.40
2019-04-21T01:51:06.457Z,9.40
2019-04-21T01:53:02.029Z,9.30
2019-04-21T01:55:12.359Z,9.40
2019-04-21T01:57:10.446Z,9.50
2019-04-21T01:58:54.029Z,9.50
2019-04-21T02:00:59.592Z,9.40
2019-04-21T02:02:59.874Z,9.40
2019-04-21T02:04:50.072Z,9.30
2019-04-21T02:06:41.327Z,9.30
2019-04-21T02:08:34.569Z,9.20
2019-04-21T02:10:34.568Z,9.20
2019-04-21T02:12:26.592Z,9.20
2019-04-21T02:14:23.695Z,9.20
2019-04-21T02:16:12.445Z,9.10
2019-04-21T02:18:09.180Z,9.20
2019-04-21T02:19:55.115Z,9.20
2019-04-21T02:21:47.454Z,9.20
2019-04-21T02:23:54.304Z,9.30
2019-04-21T02:25:44.202Z,9.30
2019-04-21T02:27:39.654Z,9.20
2019-04-21T02:29:33.161Z,9.20
2019-04-21T02:31:44.691Z,9.20
2019-04-21T02:33:43.103Z,9.30
2019-04-21T02:35:34.081Z,9.30
2019-04-21T02:41:01.478Z,9.20
2019-04-21T02:43:07.328Z,9.20
2019-04-21T02:44:57.301Z,9.10
2019-04-21T02:46:42.188Z,9.10
2019-04-21T02:48:46.471Z,9.00
2019-04-21T02:50:34.136Z,9.00
2019-04-21T02:52:31.541Z,8.90
2019-04-21T02:54:45.876Z,8.80
2019-04-21T02:56:19.104Z,8.80
2019-04-21T02:58:18.293Z,8.80
2019-04-21T03:00:32.904Z,8.90
2019-04-21T03:02:13.914Z,8.90
2019-04-21T03:04:10.719Z,8.90
2019-04-21T03:06:20.701Z,9.00
2019-04-21T03:09:45.893Z,8.90
2019-04-21T03:11:36.447Z,8.90
2019-04-21T03:13:41.746Z,8.90
2019-04-21T03:15:49.386Z,8.80
2019-04-21T03:17:29.276Z,8.90
2019-04-21T03:21:16.174Z,8.70
2019-04-21T03:27:25.797Z,8.60
2019-04-21T03:31:11.768Z,8.60
2019-04-21T03:36:51.634Z,8.70
2019-04-21T03:38:29.327Z,8.70
2019-04-21T03:40:15.203Z,8.60
2019-04-21T03:42:19.885Z,8.60
2019-04-21T03:45:51.399Z,8.60
2019-04-21T03:49:50.026Z,8.50
2019-04-21T03:51:43.924Z,8.50
2019-04-21T03:53:32.503Z,8.60
2019-04-21T03:57:38.109Z,8.50
2019-04-21T03:59:12.272Z,8.50
2019-04-21T04:01:22.138Z,8.50
2019-04-21T04:03:44.257Z,8.40
2019-04-21T04:05:37.843Z,8.60
2019-04-21T04:07:22.842Z,8.70
2019-04-21T04:09:27.959Z,8.60
2019-04-21T04:11:33.739Z,8.60
2019-04-21T04:13:15.754Z,8.60
2019-04-21T04:15:00.637Z,8.50
2019-04-21T04:17:06.458Z,8.50
2019-04-21T04:18:53.390Z,8.50
2019-04-21T04:20:42.416Z,8.40
2019-04-21T04:22:56.404Z,8.40
2019-04-21T04:26:37.005Z,8.30
2019-04-21T04:28:28.662Z,8.30
2019-04-21T04:30:32.425Z,8.30
2019-04-21T04:32:04.972Z,8.30
2019-04-21T04:39:48.759Z,8.20
2019-04-21T04:41:55.039Z,8.30
2019-04-21T04:43:35.288Z,8.30
2019-04-21T04:45:47.633Z,8.20
2019-04-21T04:47:22.767Z,8.30
2019-04-21T04:49:46.659Z,8.30
2019-04-21T04:51:18.878Z,8.20
2019-04-21T04:53:15.044Z,8.30
2019-04-21T04:55:03.748Z,8.30
2019-04-21T04:57:18.301Z,8.40
2019-04-21T04:59:20.210Z,8.50
2019-04-21T05:01:02.399Z,8.60
2019-04-21T05:04:37.081Z,8.70
2019-04-21T05:06:53.893Z,8.70
2019-04-21T05:08:33.798Z,8.80
2019-04-21T05:10:22.313Z,8.90
2019-04-21T05:12:05.988Z,8.90
2019-04-21T05:16:06.378Z,9.00
2019-04-21T05:18:08.685Z,9.10
2019-04-21T05:19:53.350Z,9.10
2019-04-21T05:23:26.092Z,9.10
2019-04-21T05:25:16.897Z,9.20
2019-04-21T05:27:08.688Z,9.20
2019-04-21T05:28:55.554Z,9.30
2019-04-21T05:31:09.088Z,9.40
2019-04-21T05:32:59.952Z,9.50
2019-04-21T05:34:50.358Z,9.70
2019-04-21T05:36:44.469Z,9.80
2019-04-21T05:38:42.350Z,9.90
2019-04-21T05:40:37.367Z,10.00
2019-04-21T05:42:30.499Z,10.10
2019-04-21T05:44:39.993Z,10.10
2019-04-21T05:46:25.149Z,10.20
2019-04-21T05:50:12.345Z,10.40
2019-04-21T05:52:08.050Z,10.40
2019-04-21T05:54:18.589Z,10.40
2019-04-21T05:56:03.570Z,10.50
2019-04-21T05:57:55.908Z,10.60
2019-04-21T05:59:50.312Z,10.70
2019-04-21T06:02:09.033Z,10.70
2019-04-21T06:03:44.881Z,10.80
2019-04-21T06:05:37.902Z,10.90
2019-04-21T06:07:23.031Z,10.90
2019-04-21T06:09:20.863Z,10.90
2019-04-21T06:13:13.835Z,11.00
2019-04-21T06:15:02.615Z,11.40
2019-04-21T06:16:57.150Z,11.60
2019-04-21T06:18:53.184Z,12.20
2019-04-21T06:20:40.861Z,12.20
2019-04-21T06:22:39.688Z,12.40
2019-04-21T06:24:30.367Z,12.50
2019-04-21T06:28:20.939Z,12.50
2019-04-21T06:30:14.674Z,12.50
2019-04-21T06:34:04.923Z,12.40
2019-04-21T06:37:54.976Z,12.50
2019-04-21T06:43:38.602Z,12.80
2019-04-21T06:45:37.889Z,12.70
2019-04-21T06:47:29.974Z,12.70
2019-04-21T06:49:16.217Z,12.80
2019-04-21T06:51:20.505Z,12.90
2019-04-21T06:53:05.605Z,13.10
2019-04-21T06:55:03.525Z,13.10
2019-04-21T06:56:51.572Z,13.20
2019-04-21T06:58:43.941Z,13.30
2019-04-21T07:00:39.036Z,13.30
2019-04-21T07:02:50.743Z,13.50
2019-04-21T07:04:29.687Z,13.50
2019-04-21T07:06:23.455Z,13.50
2019-04-21T07:08:31.307Z,13.50
2019-04-21T07:10:10.369Z,13.70
2019-04-21T07:11:59.867Z,13.80
2019-04-21T07:14:15.017Z,13.90
2019-04-21T07:15:50.201Z,14.00
2019-04-21T07:17:45.482Z,14.10
2019-04-21T07:19:49.862Z,14.30
2019-04-21T07:21:35.658Z,14.40
2019-04-21T07:23:34.830Z,14.30
2019-04-21T07:25:23.883Z,14.30
2019-04-21T07:27:17.539Z,14.60
2019-04-21T07:29:14.159Z,14.50
2019-04-21T07:31:11.205Z,14.60
2019-04-21T07:33:07.156Z,14.50
2019-04-21T07:34:52.194Z,14.80
2019-04-21T07:36:52.155Z,14.90
2019-04-21T07:38:34.558Z,14.80
2019-04-21T07:40:27.479Z,14.80
2019-04-21T07:42:19.036Z,15.00
2019-04-21T07:44:14.894Z,14.80
2019-04-21T07:46:06.489Z,14.80
2019-04-21T07:48:12.454Z,14.70
2019-04-21T07:50:09.067Z,15.00
2019-04-21T07:52:22.282Z,15.00
2019-04-21T07:54:16.989Z,15.10
2019-04-21T07:55:51.032Z,15.50
2019-04-21T07:58:02.622Z,15.60
2019-04-21T08:00:08.400Z,15.50
2019-04-21T08:01:53.757Z,15.60
2019-04-21T08:03:45.838Z,15.70
2019-04-21T08:05:54.715Z,15.90
2019-04-21T08:07:44.992Z,15.80
2019-04-21T08:09:29.486Z,15.90
2019-04-21T08:11:16.757Z,16.20
2019-04-21T08:13:22.135Z,16.20
2019-04-21T08:15:18.242Z,16.10
2019-04-21T08:17:04.881Z,16.10
2019-04-21T08:18:52.170Z,16.40
2019-04-21T08:20:47.908Z,16.50
2019-04-21T08:22:46.779Z,16.60
2019-04-21T08:24:40.007Z,16.60
2019-04-21T08:26:39.798Z,16.70
2019-04-21T08:28:26.467Z,17.00
2019-04-21T08:30:22.726Z,17.00
2019-04-21T08:32:16.076Z,17.00
2019-04-21T08:34:09.656Z,17.00
2019-04-21T08:37:57.003Z,17.20
2019-04-21T08:39:58.090Z,17.30
2019-04-21T08:41:46.925Z,17.20
2019-04-21T08:47:25.543Z,17.80
2019-04-21T08:49:15.629Z,18.50
2019-04-21T08:51:26.087Z,18.40
2019-04-21T08:53:09.496Z,18.60
2019-04-21T08:55:03.783Z,18.70
2019-04-21T08:57:07.837Z,18.80
2019-04-21T08:59:17.672Z,18.80
2019-04-21T09:01:10.542Z,18.90
2019-04-21T09:03:14.623Z,18.90
2019-04-21T09:05:04.798Z,19.00
2019-04-21T09:07:05.320Z,19.10
2019-04-21T09:09:01.553Z,19.40
2019-04-21T09:10:47.325Z,19.70
2019-04-21T09:12:44.945Z,20.10
2019-04-21T09:14:37.887Z,20.00
2019-04-21T09:16:26.220Z,20.10
2019-04-21T09:18:18.515Z,19.90
2019-04-21T09:20:26.408Z,20.00
2019-04-21T09:22:12.848Z,20.10
2019-04-21T09:24:10.277Z,20.00
2019-04-21T09:25:57.403Z,20.40
2019-04-21T09:27:55.255Z,20.60
2019-04-21T09:29:37.426Z,20.90
2019-04-21T09:31:25.914Z,21.00
2019-04-21T09:33:18.399Z,20.80
2019-04-21T09:35:14.637Z,20.50
2019-04-21T09:37:23.559Z,20.60
2019-04-21T09:39:06.659Z,20.80
2019-04-21T09:40:55.894Z,20.90
2019-04-21T09:42:55.963Z,20.60
2019-04-21T09:44:45.428Z,20.50
2019-04-21T09:46:46.624Z,20.70
2019-04-21T09:48:44.279Z,20.90
2019-04-21T09:50:24.527Z,20.90
2019-04-21T09:52:23.179Z,20.90
2019-04-21T09:54:20.161Z,21.00
2019-04-21T09:56:08.320Z,21.00
2019-04-21T09:58:12.324Z,21.30
2019-04-21T10:00:04.036Z,21.80
2019-04-21T10:02:01.477Z,22.00
2019-04-21T10:03:44.781Z,21.70
2019-04-21T10:05:33.809Z,21.70
2019-04-21T10:07:34.584Z,21.70
2019-04-21T10:09:26.495Z,21.80
2019-04-21T10:11:20.792Z,21.20
2019-04-21T10:13:12.962Z,20.70
2019-04-21T10:15:06.260Z,20.90
2019-04-21T10:17:17.231Z,20.90
2019-04-21T10:19:11.023Z,21.00
2019-04-21T10:21:03.771Z,21.00
2019-04-21T10:22:57.216Z,21.10
2019-04-21T10:24:49.680Z,21.30
2019-04-21T10:26:43.083Z,21.70
2019-04-21T10:28:37.169Z,21.50
2019-04-21T10:30:30.756Z,21.40
2019-04-21T10:32:25.270Z,21.10
2019-04-21T10:34:17.432Z,21.30
2019-04-21T10:36:10.951Z,21.30
2019-04-21T10:38:16.797Z,21.10
2019-04-21T10:39:58.335Z,21.40
2019-04-21T10:41:51.166Z,21.60
2019-04-21T10:43:45.112Z,21.70
2019-04-21T10:45:39.005Z,21.40
2019-04-21T10:47:31.631Z,21.50
2019-04-21T10:49:24.477Z,21.50
2019-04-21T10:51:19.044Z,21.20
2019-04-21T10:53:18.950Z,20.90
2019-04-21T10:55:30.936Z,21.00
2019-04-21T10:57:08.347Z,21.10
2019-04-21T10:59:00.656Z,21.20
2019-04-21T11:01:04.168Z,21.50
2019-04-21T11:03:14.877Z,21.60
2019-04-21T11:05:08.968Z,21.50
2019-04-21T11:07:06.718Z,21.50
2019-04-21T11:08:59.565Z,21.40
2019-04-21T11:10:51.963Z,21.60
2019-04-21T11:12:44.813Z,21.90
2019-04-21T11:14:38.940Z,21.70
2019-04-21T11:16:31.245Z,21.70
2019-04-21T11:18:24.059Z,21.70
2019-04-21T11:20:17.263Z,21.50
2019-04-21T11:22:10.455Z,21.60
2019-04-21T11:24:03.968Z,21.70
2019-04-21T11:25:57.996Z,22.10
2019-04-21T11:27:51.183Z,22.10
2019-04-21T11:29:44.024Z,21.90
2019-04-21T11:31:36.903Z,21.90
2019-04-21T11:33:31.288Z,21.60
2019-04-21T11:35:25.390Z,21.30
2019-04-21T11:37:19.965Z,21.40
2019-04-21T11:39:35.300Z,21.50
2019-04-21T11:41:16.435Z,21.50
2019-04-21T11:43:09.586Z,21.60
2019-04-21T11:45:01.936Z,22.00
2019-04-21T11:46:54.605Z,22.10
2019-04-21T11:48:48.268Z,21.70
2019-04-21T11:50:41.338Z,22.00
2019-04-21T11:52:34.679Z,22.10
2019-04-21T11:54:28.762Z,22.40
2019-04-21T11:56:22.979Z,22.50
2019-04-21T11:58:18.064Z,22.20
2019-04-21T12:00:11.515Z,22.30
2019-04-21T12:02:04.026Z,22.90
2019-04-21T12:03:56.188Z,23.40
2019-04-21T12:05:48.389Z,23.80
2019-04-21T12:07:40.899Z,24.80
2019-04-21T12:09:33.555Z,24.20
2019-04-21T12:11:27.207Z,24.30
2019-04-21T12:13:20.385Z,24.00
2019-04-21T12:15:14.142Z,24.70
2019-04-21T12:17:07.826Z,25.30
2019-04-21T12:19:00.930Z,26.30
2019-04-21T12:20:53.736Z,25.70
2019-04-21T12:22:47.358Z,25.80
2019-04-21T12:24:40.626Z,26.00
2019-04-21T12:26:33.847Z,26.00
2019-04-21T12:28:27.953Z,26.00
2019-04-21T12:30:21.751Z,26.40
2019-04-21T12:32:33.750Z,27.00
2019-04-21T12:34:26.001Z,26.80
2019-04-21T12:36:17.961Z,26.60
2019-04-21T12:38:10.957Z,26.40
2019-04-21T12:40:03.668Z,26.30
2019-04-21T12:41:56.443Z,25.70
2019-04-21T12:43:48.876Z,26.40
2019-04-21T12:45:41.901Z,27.50
2019-04-21T12:47:34.376Z,26.90
2019-04-21T12:49:27.578Z,26.80
2019-04-21T12:51:20.149Z,26.10
2019-04-21T12:53:14.178Z,26.50
2019-04-21T12:55:06.510Z,26.10
2019-04-21T12:56:59.194Z,26.90
2019-04-21T12:58:51.494Z,26.90
2019-04-21T13:00:44.880Z,27.60
2019-04-21T13:02:37.925Z,26.80
2019-04-21T13:04:31.587Z,26.50
2019-04-21T13:06:24.004Z,26.20
2019-04-21T13:08:17.569Z,26.00
2019-04-21T13:10:12.687Z,26.40
2019-04-21T13:12:05.087Z,27.00
2019-04-21T13:13:57.859Z,28.00
2019-04-21T13:15:51.438Z,27.60
2019-04-21T13:17:46.037Z,28.30
2019-04-21T13:19:38.989Z,27.30
2019-04-21T13:21:31.984Z,28.00
2019-04-21T13:23:24.929Z,26.80
2019-04-21T13:25:18.051Z,27.50
2019-04-21T13:27:12.403Z,27.50
2019-04-21T13:29:05.912Z,27.20
2019-04-21T13:30:58.551Z,27.40
2019-04-21T13:32:51.421Z,27.50
2019-04-21T13:34:44.239Z,28.40
2019-04-21T13:36:36.612Z,27.60
2019-04-21T13:38:36.371Z,27.20
2019-04-21T13:40:57.909Z,27.40
2019-04-21T13:42:43.825Z,27.10
2019-04-21T13:44:32.941Z,26.90
2019-04-21T13:46:27.106Z,27.10
2019-04-21T13:48:22.269Z,27.20
2019-04-21T13:50:15.324Z,27.10
2019-04-21T13:52:08.949Z,28.80
2019-04-21T13:54:01.968Z,28.60
2019-04-21T13:55:54.407Z,27.70
2019-04-21T13:57:46.652Z,28.60
2019-04-21T13:59:40.234Z,29.00
2019-04-21T14:01:33.861Z,28.00
2019-04-21T14:03:26.777Z,27.60
2019-04-21T14:05:20.337Z,27.90
2019-04-21T14:07:14.268Z,27.40
2019-04-21T14:09:09.466Z,28.20
2019-04-21T14:11:02.299Z,28.40
2019-04-21T14:12:54.557Z,27.60
2019-04-21T14:14:46.589Z,27.70
2019-04-21T14:16:39.851Z,28.00
2019-04-21T14:18:32.914Z,29.20
2019-04-21T14:20:27.112Z,28.20
2019-04-21T14:22:22.480Z,28.10
2019-04-21T14:24:14.918Z,28.40
2019-04-21T14:26:08.713Z,28.10
2019-04-21T14:28:02.073Z,27.30
2019-04-21T14:29:55.974Z,28.00
2019-04-21T14:31:48.477Z,29.40
2019-04-21T14:33:40.795Z,29.10
2019-04-21T14:35:32.994Z,28.00
2019-04-21T14:37:26.553Z,27.30
2019-04-21T14:39:18.900Z,27.30
2019-04-21T14:41:10.890Z,27.20
2019-04-21T14:43:03.472Z,26.80
2019-04-21T14:44:56.803Z,26.60
2019-04-21T14:46:55.042Z,26.40
2019-04-21T14:49:06.965Z,26.40
2019-04-21T14:51:07.147Z,26.70
2019-04-21T14:53:20.116Z,26.20
2019-04-21T14:55:18.490Z,25.70
2019-04-21T14:57:11.424Z,25.50
2019-04-21T14:59:05.856Z,25.40
2019-04-21T15:01:00.320Z,25.40
2019-04-21T15:02:53.697Z,25.80
2019-04-21T15:04:46.925Z,25.00
2019-04-21T15:06:39.417Z,24.60
2019-04-21T15:08:31.694Z,24.70
2019-04-21T15:10:27.074Z,24.40
2019-04-21T15:12:18.250Z,24.30
2019-04-21T15:14:11.716Z,24.40
2019-04-21T15:16:04.717Z,24.70
2019-04-21T15:17:57.881Z,25.10
2019-04-21T15:19:58.615Z,25.20
2019-04-21T15:21:44.688Z,25.30
2019-04-21T15:23:38.072Z,24.90
2019-04-21T15:25:30.439Z,24.70
2019-04-21T15:27:23.129Z,25.10
2019-04-21T15:29:15.380Z,25.20
2019-04-21T15:31:08.288Z,25.00
2019-04-21T15:33:02.356Z,24.50
2019-04-21T15:34:56.126Z,24.30
2019-04-21T15:36:50.392Z,24.30
2019-04-21T15:38:43.688Z,24.60
2019-04-21T15:40:44.549Z,25.20
2019-04-21T15:42:30.686Z,25.70
2019-04-21T15:44:24.735Z,25.80
2019-04-21T15:46:18.483Z,25.40
2019-04-21T15:48:12.054Z,25.90
2019-04-21T15:50:10.222Z,25.10
2019-04-21T15:51:59.882Z,25.10
2019-04-21T15:53:52.415Z,24.30
2019-04-21T15:56:02.454Z,24.10
2019-04-21T15:57:58.520Z,23.80
2019-04-21T16:00:04.771Z,23.60
2019-04-21T16:02:01.284Z,23.20
2019-04-21T16:03:56.911Z,23.00
2019-04-21T16:05:48.830Z,22.70
2019-04-21T16:07:42.359Z,22.80
2019-04-21T16:09:37.427Z,22.90
2019-04-21T16:11:28.966Z,23.00
2019-04-21T16:13:21.576Z,23.00
2019-04-21T16:15:14.609Z,22.70
2019-04-21T16:17:07.666Z,22.80
2019-04-21T16:19:00.530Z,22.80
2019-04-21T16:20:53.711Z,23.00
2019-04-21T16:22:46.517Z,22.70
2019-04-21T16:24:39.855Z,22.60
2019-04-21T16:26:32.895Z,22.70
2019-04-21T16:28:25.197Z,22.40
2019-04-21T16:30:17.868Z,21.90
2019-04-21T16:32:11.513Z,21.70
2019-04-21T16:34:05.123Z,21.30
2019-04-21T16:35:58.005Z,21.40
2019-04-21T16:37:50.653Z,21.30
2019-04-21T16:39:43.344Z,21.20
2019-04-21T16:41:36.136Z,21.00
2019-04-21T16:43:29.177Z,21.10
2019-04-21T16:45:23.063Z,21.00
2019-04-21T16:47:15.308Z,20.90
2019-04-21T16:49:07.552Z,20.70
2019-04-21T16:50:59.873Z,20.70
2019-04-21T16:52:54.254Z,20.80
2019-04-21T16:54:49.654Z,20.60
2019-04-21T16:56:44.045Z,20.50
2019-04-21T16:58:38.855Z,20.40
2019-04-21T17:00:41.870Z,20.40
2019-04-21T17:02:25.571Z,20.40
2019-04-21T17:04:20.362Z,20.30
2019-04-21T17:06:13.335Z,20.30
2019-04-21T17:08:05.995Z,20.30
2019-04-21T17:10:02.546Z,20.20
2019-04-21T17:11:59.942Z,20.00
2019-04-21T17:13:49.973Z,20.00
2019-04-21T17:16:01.791Z,20.00
2019-04-21T17:17:59.074Z,20.00
2019-04-21T17:19:36.031Z,20.00
2019-04-21T17:21:23.955Z,19.90
2019-04-21T17:23:17.572Z,19.90
2019-04-21T17:25:10.802Z,19.80
2019-04-21T17:27:05.069Z,19.80
2019-04-21T17:28:58.712Z,19.70
2019-04-21T17:30:52.666Z,19.70
2019-04-21T17:32:49.552Z,19.70
2019-04-21T17:34:41.078Z,19.60
2019-04-21T17:36:34.814Z,19.60
2019-04-21T17:38:27.998Z,19.60
2019-04-21T17:40:24.537Z,19.40
2019-04-21T17:42:27.492Z,19.40
2019-04-21T17:44:11.086Z,19.40
2019-04-21T17:46:04.852Z,19.30
2019-04-21T17:48:03.301Z,19.20
2019-04-21T17:49:53.607Z,19.20
2019-04-21T17:51:53.699Z,19.10
2019-04-21T17:53:58.957Z,19.10
2019-04-21T17:56:05.011Z,19.10
2019-04-21T17:57:57.086Z,19.00
2019-04-21T18:00:04.348Z,19.00
2019-04-21T18:01:47.420Z,19.00
2019-04-21T18:03:54.380Z,18.90
2019-04-21T18:05:38.934Z,18.80
2019-04-21T18:07:46.401Z,18.70
2019-04-21T18:09:28.713Z,18.60
2019-04-21T18:11:12.537Z,18.60
2019-04-21T18:13:04.432Z,18.50
2019-04-21T18:15:00.237Z,18.50
2019-04-21T18:16:39.922Z,18.50
2019-04-21T18:18:30.573Z,18.50
2019-04-21T18:20:33.415Z,18.40
2019-04-21T18:22:47.432Z,18.40
2019-04-21T18:24:48.859Z,18.40
2019-04-21T18:26:40.487Z,18.30
2019-04-21T18:28:28.348Z,18.20
2019-04-21T18:30:24.340Z,18.20
2019-04-21T18:32:24.852Z,18.10
2019-04-21T18:34:30.645Z,18.00
2019-04-21T18:36:29.056Z,18.00
2019-04-21T18:38:26.098Z,18.00
2019-04-21T18:40:21.673Z,17.90
2019-04-21T18:42:37.224Z,17.90
2019-04-21T18:44:46.228Z,17.90
2019-04-21T18:46:42.606Z,17.90
2019-04-21T18:48:22.222Z,17.80
2019-04-21T18:50:31.574Z,17.70
2019-04-21T18:52:32.027Z,17.60
2019-04-21T18:54:41.447Z,17.60
2019-04-21T18:56:19.521Z,17.50
2019-04-21T18:58:13.411Z,17.60
2019-04-21T19:00:15.363Z,17.60
2019-04-21T19:02:06.257Z,17.60
2019-04-21T19:03:55.970Z,17.50
2019-04-21T19:05:53.790Z,17.50
2019-04-21T19:08:04.461Z,17.40
2019-04-21T19:10:10.220Z,17.40
2019-04-21T19:11:49.867Z,17.40
2019-04-21T19:14:11.448Z,17.40
2019-04-21T19:16:03.356Z,17.30
2019-04-21T19:19:44.154Z,17.30
2019-04-21T19:21:20.673Z,17.20
2019-04-21T19:23:18.848Z,17.20
2019-04-21T19:25:17.987Z,17.20
2019-04-21T19:27:22.539Z,17.10
2019-04-21T19:29:09.851Z,17.10
2019-04-21T19:31:00.870Z,17.20
2019-04-21T19:32:48.204Z,17.10
2019-04-21T19:34:29.512Z,17.00
2019-04-21T19:36:03.335Z,17.00
2019-04-21T19:37:45.240Z,17.00
2019-04-21T19:39:23.329Z,17.00
2019-04-21T19:41:03.972Z,16.90
2019-04-21T19:42:37.015Z,16.90
2019-04-21T19:44:17.456Z,16.90
2019-04-21T19:45:48.573Z,16.80
2019-04-21T19:47:35.430Z,16.80
2019-04-21T19:49:27.576Z,16.80
2019-04-21T19:51:15.174Z,16.80
2019-04-21T19:53:03.441Z,16.70
2019-04-21T19:54:50.029Z,16.70
2019-04-21T19:56:40.921Z,16.60
2019-04-21T19:58:38.447Z,16.60
2019-04-21T20:00:28.424Z,16.60
2019-04-21T20:02:22.363Z,16.50
2019-04-21T20:04:14.754Z,16.50
2019-04-21T20:06:14.897Z,16.50
2019-04-21T20:08:17.371Z,16.40
2019-04-21T20:10:14.399Z,16.30
2019-04-21T20:12:06.015Z,16.30
2019-04-21T20:14:30.393Z,16.20
2019-04-21T20:15:57.213Z,16.20
2019-04-21T20:17:48.354Z,16.20
2019-04-21T20:19:24.773Z,16.20
2019-04-21T20:21:17.469Z,16.20
2019-04-21T20:23:16.988Z,16.10
2019-04-21T20:25:11.629Z,16.00
2019-04-21T20:27:07.900Z,16.00
2019-04-21T20:29:07.210Z,15.90
2019-04-21T20:31:11.671Z,15.90
2019-04-21T20:33:13.687Z,15.80
2019-04-21T20:34:56.248Z,15.80
2019-04-21T20:36:51.826Z,15.70
2019-04-21T20:38:34.027Z,15.70
2019-04-21T20:40:27.964Z,15.80
2019-04-21T20:42:23.604Z,15.80
2019-04-21T20:44:24.664Z,15.80
2019-04-21T20:46:12.550Z,15.90
2019-04-21T20:47:54.645Z,15.70
2019-04-21T20:50:03.289Z,15.70
2019-04-21T20:52:07.748Z,15.60
2019-04-21T20:53:49.014Z,15.50
2019-04-21T20:55:37.863Z,15.40
2019-04-21T20:57:36.567Z,15.40
2019-04-21T20:59:28.795Z,15.30
2019-04-21T21:03:24.246Z,15.20
2019-04-21T21:05:14.315Z,15.20
2019-04-21T21:07:16.166Z,15.10
2019-04-21T21:09:03.007Z,15.10
2019-04-21T21:10:53.441Z,15.10
2019-04-21T21:13:00.630Z,15.10
2019-04-21T21:14:42.493Z,15.00
2019-04-21T21:16:46.297Z,15.00
2019-04-21T21:19:00.381Z,15.00
2019-04-21T21:20:30.807Z,15.20
2019-04-21T21:22:15.962Z,15.10
2019-04-21T21:24:13.858Z,15.10
2019-04-21T21:26:18.818Z,15.00
2019-04-21T21:27:55.262Z,14.80
2019-04-21T21:29:56.535Z,14.70
2019-04-21T21:32:04.280Z,14.70
2019-04-21T21:33:59.165Z,14.70
2019-04-21T21:35:35.949Z,14.80
2019-04-21T21:37:36.330Z,14.80
2019-04-21T21:39:36.124Z,14.70
2019-04-21T21:41:17.899Z,14.60
2019-04-21T21:43:01.550Z,14.60
2019-04-21T21:45:02.880Z,14.70
2019-04-21T21:47:04.290Z,14.50
2019-04-21T21:48:53.830Z,14.40
2019-04-21T21:50:45.688Z,14.40
2019-04-21T21:52:39.958Z,14.20
2019-04-21T21:54:23.721Z,14.10
2019-04-21T21:56:16.450Z,14.00
2019-04-21T21:58:10.494Z,14.00
2019-04-21T22:00:10.286Z,14.00
2019-04-21T22:02:01.407Z,13.90
2019-04-21T22:04:02.286Z,13.90
2019-04-21T22:05:56.813Z,14.00
2019-04-21T22:07:42.491Z,14.00
2019-04-21T22:09:36.505Z,14.00
2019-04-21T22:11:29.772Z,13.90
2019-04-21T22:13:34.151Z,13.80
2019-04-21T22:15:19.729Z,13.80
2019-04-21T22:17:27.457Z,13.80
2019-04-21T22:19:19.017Z,13.80
2019-04-21T22:21:09.930Z,13.90
2019-04-21T22:22:58.417Z,13.90
2019-04-21T22:24:55.594Z,13.80
2019-04-21T22:26:41.052Z,13.80
2019-04-21T22:28:33.842Z,13.70
2019-04-21T22:30:33.442Z,13.60
2019-04-21T22:32:25.411Z,13.60
2019-04-21T22:34:16.667Z,13.60
2019-04-21T22:36:21.027Z,13.60
2019-04-21T22:38:19.075Z,13.60
2019-04-21T22:40:10.917Z,13.50
2019-04-21T22:42:01.716Z,13.60
2019-04-21T22:43:47.417Z,13.60
2019-04-21T22:45:37.734Z,13.40
2019-04-21T22:47:33.943Z,13.30
2019-04-21T22:49:23.981Z,13.20
2019-04-21T22:51:23.693Z,13.30
2019-04-21T22:53:12.359Z,13.30
2019-04-21T22:55:10.779Z,13.30
2019-04-21T22:57:09.666Z,13.30
2019-04-21T22:58:55.010Z,13.30
2019-04-21T23:00:52.835Z,13.20
2019-04-21T23:02:44.073Z,13.20
2019-04-21T23:04:43.518Z,13.20
2019-04-21T23:06:34.289Z,13.20
2019-04-21T23:08:31.847Z,13.20
2019-04-21T23:10:19.227Z,13.20
2019-04-21T23:12:21.808Z,13.20
2019-04-21T23:14:11.287Z,13.20
2019-04-21T23:16:03.074Z,13.00
2019-04-21T23:18:13.003Z,13.00
2019-04-21T23:20:08.883Z,12.90
2019-04-21T23:22:03.573Z,12.90
2019-04-21T23:23:57.199Z,12.80
2019-04-21T23:25:47.194Z,12.70
2019-04-21T23:27:46.915Z,12.70
2019-04-21T23:29:47.837Z,12.60
2019-04-21T23:31:34.215Z,12.60
2019-04-21T23:33:12.035Z,12.50
2019-04-21T23:35:11.412Z,12.50
2019-04-21T23:37:02.282Z,12.40
2019-04-21T23:38:51.885Z,12.30
2019-04-21T23:40:48.726Z,12.20
2019-04-21T23:42:40.631Z,12.20
2019-04-21T23:44:33.910Z,12.30
2019-04-21T23:46:29.837Z,12.40
2019-04-21T23:48:35.784Z,12.30
2019-04-21T23:50:25.329Z,12.30
2019-04-21T23:52:10.946Z,12.40
2019-04-21T23:54:01.802Z,12.40
2019-04-21T23:55:55.262Z,12.40
2019-04-21T23:57:50.073Z,12.30
2019-04-21T23:59:47.185Z,12.30
